Kaministiqua — CFN4612 — position and weather

sailwx.info

Track history (hours):
 
Tides and Currents Weather Stations Pressure Air Temp Water Temp Dewpoint Dewpoint Depression Visibility Wind Speed Wind Dir Waves Ship Positions

Kaministiqua

Last reported at 2016-Dec-17 12:19 UTC. Time now 2017-Feb-24 12:39 UTC.
Position N 45°14' W 074°14'.
Warning: this ship's position is months out of date.

Length 223 m; draft 7.3 m.

Type: Cargo ship. MMSI: 316009457.

Date/timePositionNaut miles runAvg speedWind from/ knotsBaromVisibWave heightAir tempDewpointWater temp
2016-Dec-17 12:19N 45°14' W 074°14'8 9.2
2016-Dec-17 11:24N 45°13' W 074°02'7 8.0
2016-Dec-17 10:33N 45°18' W 073°56'1 0.9
2016-Dec-17 09:33N 45°19' W 073°55'0 0.3
2016-Dec-17 08:33N 45°19' W 073°55'5 4.8
2016-Dec-17 07:33N 45°22' W 073°50'8 7.7
2016-Dec-17 06:33N 45°25' W 073°39'4 3.8
2016-Dec-17 05:33N 45°24' W 073°34'1 1.3
2016-Dec-17 04:33N 45°25' W 073°32'  
2016-Dec-13 10:33N 45°26' W 073°30'3 2.9
2016-Dec-13 09:31N 45°24' W 073°34'3 2.5
2016-Dec-13 08:30N 45°24' W 073°38'6 6.6
2016-Dec-13 07:33N 45°24' W 073°46'8 7.9
2016-Dec-13 06:33N 45°19' W 073°55'1 0.9
2016-Dec-13 05:31N 45°18' W 073°56'2 2.5
2016-Dec-13 04:33N 45°16' W 073°57'7 7.2
2016-Dec-13 03:33N 45°14' W 074°07'249 9.6
2016-Dec-12 01:33N 43°16' W 079°12'3 2.8
2016-Dec-12 00:33N 43°13' W 079°13'2 1.5
2016-Dec-11 23:33N 43°12' W 079°12'  
Track history (hours):
 
Tides and Currents Weather Stations Pressure Air Temp Water Temp Dewpoint Dewpoint Depression Visibility Wind Speed Wind Dir Waves Ship Positions

Kaministiqua

Last reported at 2016-Dec-17 12:19 UTC. Time now 2017-Feb-24 12:39 UTC.
Position N 45°14' W 074°14'.
Warning: this ship's position is months out of date.

Length 223 m; draft 7.3 m.

Type: Cargo ship. MMSI: 316009457.

Date/timePositionNaut miles runAvg speedWind from/ knotsBaromVisibWave heightAir tempDewpointWater temp
2016-Dec-17 12:19N 45°14' W 074°14'8 9.2
2016-Dec-17 11:24N 45°13' W 074°02'7 8.0
2016-Dec-17 10:33N 45°18' W 073°56'1 0.9
2016-Dec-17 09:33N 45°19' W 073°55'0 0.3
2016-Dec-17 08:33N 45°19' W 073°55'5 4.8
2016-Dec-17 07:33N 45°22' W 073°50'8 7.7
2016-Dec-17 06:33N 45°25' W 073°39'4 3.8
2016-Dec-17 05:33N 45°24' W 073°34'1 1.3
2016-Dec-17 04:33N 45°25' W 073°32'  
2016-Dec-13 10:33N 45°26' W 073°30'3 2.9
2016-Dec-13 09:31N 45°24' W 073°34'3 2.5
2016-Dec-13 08:30N 45°24' W 073°38'6 6.6
2016-Dec-13 07:33N 45°24' W 073°46'8 7.9
2016-Dec-13 06:33N 45°19' W 073°55'1 0.9
2016-Dec-13 05:31N 45°18' W 073°56'2 2.5
2016-Dec-13 04:33N 45°16' W 073°57'7 7.2
2016-Dec-13 03:33N 45°14' W 074°07'249 9.6
2016-Dec-12 01:33N 43°16' W 079°12'3 2.8
2016-Dec-12 00:33N 43°13' W 079°13'2 1.5
2016-Dec-11 23:33N 43°12' W 079°12'  

Dump ship's entire track history